Hickory Regional Airport
KHKY : now visible

Airfield :











YOU CAN JOIN US ON...

 
LOGIN :

Register | Disclaimer

   EN    FR    IT 

 









Legend :    VFR   Marginal VFR   IFR   Intensive IFR   Very Intensive IFR
Visi :
Ceiling :
>= 8 km
>= 3000ft
5 to 8 km
1000 to 3000 ft
1500m to 5 km
500 to 1000 ft
800 to 1500m
200 to 500 ft
< 800m
< 200 ft
Symbols :   Thunderstorms  Fog  Heavy snow  Heavy precipitations  Wind > 20 kt






- Airport Elevation : 1190 ft
- IATA code : HKY


KHKY - Hickory Regional

CURRENT METAR :
  • 241100Z 00000KT 4SM BR SCT002 13/13 A3005 RMK AO2 T01330128

EXPIRED METARs :
  • 241053Z 00000KT 1/4SM FG VV001 13/13 A3005 RMK AO2 SLP159 T01330128
  • 241039Z AUTO 03003KT 3/4SM BR VV002 13/13 A3005 RMK AO2 T01330128
  • 240953Z AUTO 00000KT 4SM BR CLR 16/14 A3004 RMK AO2 SLP154 T01560144
  • 240853Z AUTO 00000KT 3SM BR FEW002 15/14 A3004 RMK AO2 SLP153 T01500139 58007

TAF KHKY
Valid from the 24 at 12:00 until the 25 at 12:00 UTC


241130Z 2412/2512 VRB02KT 4SM BR SCT002
TEMPO 2412/2413 2SM BR BKN002
FM241300 VRB03KT P6SM FEW050 BKN100
FM241800 25003KT P6SM -SHRA SCT030 BKN070
TEMPO 2419/2422 4SM TSRA BR OVC025CB
FM250200 VRB02KT 5SM -RA BR FEW007 SCT015 BKN025
FM250600 06003KT 3SM -RA BR FEW004 OVC007
KZTL FIR / North America



MET'MAP, your aeronautical weather chart ! - Copyright ORBIFLY December 2007 - Disclaimer

ORBIFLY MET'MAP TEAM :

Programming & Development : Alexandra Zaïnal
Concept & original design : Baudouin d'Aumeries
Assistance for programming : Marc-Olivier Méhu
Technical & hardware support : Manuel Goepfert

Contact : metmap@orbifly.com




SOURCES & CREDITS :

   NOAA       Earth
Advisory